Time;durP1;ratioP1;P1;durP2;ratioP2;P2;SDS_P1;SDS_P2;PMS_P1;PMS_P2;Temp;Humidity;BMP_temperature;BMP_pressure;BME280_temperature;BME280_humidity;BME280_pressure;Samples;Min_cycle;Max_cycle;Signal;HPM_P1;HPM_P2
2021/10/14 00:00:44;;;;;;;4.93;4.72;;;11.00;67.40;;;;;;5030475;28;20037;-87
2021/10/14 00:03:10;;;;;;;4.95;4.70;;;11.00;67.40;;;;;;5031891;28;20041;-87
2021/10/14 00:05:36;;;;;;;5.43;5.13;;;11.00;67.40;;;;;;5030731;28;20057;-87
2021/10/14 00:08:03;;;;;;;5.82;5.32;;;11.00;67.50;;;;;;5031582;28;20029;-87
2021/10/14 00:10:29;;;;;;;5.03;4.72;;;11.00;67.40;;;;;;5014519;28;20025;-87
2021/10/14 00:12:56;;;;;;;5.57;5.28;;;10.90;67.40;;;;;;5030987;28;20038;-87
2021/10/14 00:15:22;;;;;;;5.65;5.25;;;10.90;67.50;;;;;;5029479;28;20049;-88
2021/10/14 00:17:48;;;;;;;5.25;4.95;;;10.90;67.60;;;;;;5013886;28;20041;-87
2021/10/14 00:20:14;;;;;;;4.90;4.70;;;10.80;67.50;;;;;;5031565;28;20033;-87
2021/10/14 00:22:40;;;;;;;5.47;5.18;;;10.80;67.60;;;;;;5030647;28;20391;-87
2021/10/14 00:25:07;;;;;;;4.82;4.63;;;10.80;67.70;;;;;;5031825;28;20048;-87
2021/10/14 00:27:33;;;;;;;4.78;4.55;;;10.80;67.70;;;;;;5030897;28;20036;-86
2021/10/14 00:29:59;;;;;;;5.15;4.80;;;10.80;67.70;;;;;;5030595;28;20040;-88
2021/10/14 00:32:25;;;;;;;4.97;4.68;;;10.70;67.70;;;;;;5031480;28;20026;-87
2021/10/14 00:34:51;;;;;;;4.88;4.65;;;10.70;67.60;;;;;;5030671;28;20021;-87
2021/10/14 00:37:18;;;;;;;4.80;4.60;;;10.70;67.70;;;;;;5030326;28;20460;-86
2021/10/14 00:39:44;;;;;;;5.75;5.22;;;10.70;67.70;;;;;;5013955;28;20037;-87
2021/10/14 00:42:12;;;;;;;4.65;4.45;;;10.60;67.70;;;;;;5029834;28;20045;-87
2021/10/14 00:44:52;;;;;;;4.97;4.68;;;10.60;67.70;;;;;;5014193;28;20125;-86
2021/10/14 00:47:19;;;;;;;5.30;4.68;;;10.60;67.80;;;;;;5031097;28;20048;-88
2021/10/14 00:49:45;;;;;;;4.90;4.50;;;10.50;67.80;;;;;;5030374;28;20036;-87
2021/10/14 00:52:11;;;;;;;4.88;4.57;;;10.50;67.80;;;;;;5013524;28;20499;-87
2021/10/14 00:54:37;;;;;;;6.40;4.97;;;10.50;67.80;;;;;;5030400;28;20037;-87
2021/10/14 00:57:04;;;;;;;4.43;4.22;;;10.50;67.90;;;;;;5013912;28;20034;-87
2021/10/14 00:59:30;;;;;;;4.35;4.15;;;10.40;67.80;;;;;;5030221;28;20032;-86
2021/10/14 01:01:56;;;;;;;5.13;4.82;;;10.40;67.90;;;;;;5013303;28;20377;-87
2021/10/14 01:04:22;;;;;;;36.80;4.93;;;10.40;67.90;;;;;;5014026;28;20028;-87
2021/10/14 01:06:48;;;;;;;4.22;4.03;;;10.40;67.90;;;;;;5014069;28;20037;-88
2021/10/14 01:09:16;;;;;;;4.50;4.20;;;10.40;67.90;;;;;;5013534;28;20491;-87
2021/10/14 01:11:42;;;;;;;4.78;4.47;;;10.40;67.90;;;;;;5029824;28;20041;-88
2021/10/14 01:14:08;;;;;;;4.72;4.38;;;10.30;67.90;;;;;;5030256;28;20033;-87
2021/10/14 01:16:41;;;;;;;4.28;4.03;;;10.30;68.00;;;;;;5029871;28;20041;-87
2021/10/14 01:19:08;;;;;;;4.40;4.20;;;10.30;68.10;;;;;;5014189;28;20029;-87
2021/10/14 01:21:34;;;;;;;4.13;3.92;;;10.20;68.00;;;;;;5030345;28;20498;-87
2021/10/14 01:24:00;;;;;;;4.40;4.10;;;10.20;68.10;;;;;;5031363;28;20377;-84
2021/10/14 01:26:27;;;;;;;4.65;4.35;;;10.20;68.10;;;;;;5031132;28;20495;-87
2021/10/14 01:28:53;;;;;;;4.22;4.03;;;10.20;68.10;;;;;;5013695;28;20025;-87
2021/10/14 01:31:22;;;;;;;4.47;4.28;;;10.10;68.10;;;;;;5031383;28;20033;-87
2021/10/14 01:33:48;;;;;;;4.20;4.00;;;10.10;68.20;;;;;;5030192;28;20033;-87
2021/10/14 01:36:14;;;;;;;4.30;4.10;;;10.10;68.20;;;;;;5034602;28;20025;-87
2021/10/14 01:38:40;;;;;;;4.30;4.10;;;10.10;68.20;;;;;;5033414;28;20033;-86
2021/10/14 01:41:07;;;;;;;4.53;4.07;;;10.10;68.30;;;;;;5033371;28;20518;-87
2021/10/14 01:43:33;;;;;;;16.15;4.65;;;10.00;68.30;;;;;;5017010;28;20032;-87
2021/10/14 01:46:00;;;;;;;4.60;4.20;;;10.00;68.30;;;;;;5032799;28;20045;-87
2021/10/14 01:48:27;;;;;;;4.00;3.80;;;10.00;68.30;;;;;;5033354;28;20488;-86
2021/10/14 01:50:54;;;;;;;4.22;4.03;;;10.00;68.30;;;;;;5017005;28;20041;-87
2021/10/14 01:53:21;;;;;;;4.60;4.35;;;9.90;68.40;;;;;;5033317;28;20032;-85
2021/10/14 01:55:47;;;;;;;4.30;4.10;;;9.90;68.40;;;;;;5033347;28;20033;-88
2021/10/14 01:58:13;;;;;;;4.63;4.22;;;9.90;68.40;;;;;;5032938;28;20515;-87
2021/10/14 02:00:39;;;;;;;4.28;4.00;;;9.90;68.40;;;;;;5033839;28;20048;-87
2021/10/14 02:03:05;;;;;;;4.78;4.43;;;9.90;68.40;;;;;;5029259;28;20381;-86
2021/10/14 02:05:31;;;;;;;4.43;4.22;;;9.90;68.40;;;;;;5009123;28;20073;-87
2021/10/14 02:07:58;;;;;;;4.43;4.13;;;9.90;68.40;;;;;;5029174;28;20037;-88
2021/10/14 02:10:24;;;;;;;4.10;3.90;;;9.90;68.40;;;;;;5016159;28;20033;-87
2021/10/14 02:12:51;;;;;;;6.03;4.50;;;9.90;68.40;;;;;;5032905;28;20033;-86
2021/10/14 02:15:17;;;;;;;3.80;3.60;;;9.80;68.30;;;;;;5030245;28;20038;-87
2021/10/14 02:17:44;;;;;;;4.00;3.80;;;9.80;68.40;;;;;;5046936;28;20416;-87
2021/10/14 02:20:10;;;;;;;3.92;3.72;;;9.80;68.50;;;;;;5011938;28;20041;-87
2021/10/14 02:22:36;;;;;;;4.10;3.90;;;9.70;68.50;;;;;;5046512;28;20409;-87
2021/10/14 02:25:03;;;;;;;4.20;4.00;;;9.70;68.50;;;;;;5030488;28;20531;-87
2021/10/14 02:27:29;;;;;;;5.32;4.78;;;9.80;68.60;;;;;;5031310;28;20053;-87
2021/10/14 02:29:55;;;;;;;4.45;4.25;;;9.80;68.60;;;;;;5030821;28;20032;-87
2021/10/14 02:32:21;;;;;;;4.55;4.35;;;9.70;68.50;;;;;;5027173;28;20037;-87
2021/10/14 02:34:47;;;;;;;4.97;4.70;;;9.70;68.50;;;;;;5031791;28;20507;-86
2021/10/14 02:37:13;;;;;;;4.88;4.63;;;9.70;68.60;;;;;;5033085;28;20034;-87
2021/10/14 02:39:39;;;;;;;4.60;4.40;;;9.70;68.60;;;;;;5032779;28;20025;-87
2021/10/14 02:42:06;;;;;;;5.00;4.80;;;9.60;68.60;;;;;;5030729;28;20499;-86
2021/10/14 02:44:32;;;;;;;5.10;4.80;;;9.60;68.60;;;;;;5031761;28;20044;-86
2021/10/14 02:46:58;;;;;;;4.63;4.43;;;9.60;68.60;;;;;;5014832;28;20048;-86
2021/10/14 02:49:24;;;;;;;4.78;4.57;;;9.60;68.60;;;;;;5032266;28;20029;-87
2021/10/14 02:51:50;;;;;;;4.97;4.63;;;9.50;68.60;;;;;;5032652;28;20406;-87
2021/10/14 02:54:16;;;;;;;5.10;4.80;;;9.50;68.70;;;;;;5016207;28;20041;-87
2021/10/14 02:56:42;;;;;;;4.55;4.35;;;9.40;68.70;;;;;;5031390;28;20049;-86
2021/10/14 02:59:10;;;;;;;4.72;4.53;;;9.50;68.80;;;;;;5031952;28;20034;-87
2021/10/14 03:01:37;;;;;;;4.45;4.25;;;9.50;68.80;;;;;;5030475;28;20408;-86
2021/10/14 03:04:04;;;;;;;4.35;4.15;;;9.40;68.80;;;;;;5015355;28;20038;-87
2021/10/14 03:06:30;;;;;;;4.38;4.18;;;9.40;68.80;;;;;;5032229;28;20045;-86
2021/10/14 03:08:56;;;;;;;4.53;4.25;;;9.40;68.80;;;;;;5032850;28;20036;-87
2021/10/14 03:11:22;;;;;;;4.75;4.53;;;9.40;68.80;;;;;;5033097;28;20506;-87
2021/10/14 03:13:48;;;;;;;4.72;4.43;;;9.40;68.80;;;;;;5033104;28;20036;-87
2021/10/14 03:16:14;;;;;;;4.80;4.40;;;9.30;68.80;;;;;;5030934;28;20045;-87
2021/10/14 03:18:40;;;;;;;4.97;4.45;;;9.40;68.90;;;;;;5015114;28;20038;-86
2021/10/14 03:21:06;;;;;;;4.90;4.65;;;9.30;68.90;;;;;;5031600;28;20037;-87
2021/10/14 03:23:32;;;;;;;4.50;4.30;;;9.30;68.80;;;;;;5015093;28;20037;-87
2021/10/14 03:25:58;;;;;;;4.28;4.07;;;9.30;68.80;;;;;;5030904;28;20045;-87
2021/10/14 03:28:24;;;;;;;5.20;4.90;;;9.20;68.80;;;;;;5032682;28;20052;-88
2021/10/14 03:30:51;;;;;;;5.25;4.95;;;9.20;68.80;;;;;;4998768;28;20428;-88
2021/10/14 03:33:17;;;;;;;4.38;4.18;;;9.10;68.90;;;;;;5015342;28;20034;-88
2021/10/14 03:35:43;;;;;;;4.60;4.40;;;9.10;69.00;;;;;;5032545;28;20427;-88
2021/10/14 03:38:09;;;;;;;4.47;4.28;;;9.10;69.10;;;;;;5032345;28;20477;-88
2021/10/14 03:40:35;;;;;;;4.80;4.40;;;9.10;69.10;;;;;;5032502;28;20037;-88
2021/10/14 03:43:01;;;;;;;4.40;4.20;;;9.10;69.10;;;;;;5032499;28;20036;-88
2021/10/14 03:45:27;;;;;;;4.90;4.60;;;9.10;69.00;;;;;;5031966;28;20030;-88
2021/10/14 03:47:53;;;;;;;4.88;4.57;;;9.10;69.00;;;;;;5030702;28;20080;-88
2021/10/14 03:50:19;;;;;;;4.50;4.30;;;9.10;69.10;;;;;;5032363;28;20029;-88
2021/10/14 03:52:45;;;;;;;4.70;4.50;;;9.00;69.00;;;;;;5031062;28;20084;-87
2021/10/14 03:55:12;;;;;;;6.03;5.38;;;9.00;69.10;;;;;;4998293;28;20045;-88
2021/10/14 03:57:38;;;;;;;4.70;4.50;;;9.00;69.10;;;;;;5031519;28;20037;-88
2021/10/14 04:00:05;;;;;;;3.90;3.70;;;9.00;69.10;;;;;;5029892;28;20036;-89
2021/10/14 04:02:31;;;;;;;4.63;4.43;;;9.00;69.10;;;;;;5030922;28;20033;-88
2021/10/14 04:04:57;;;;;;;4.82;4.53;;;9.00;69.20;;;;;;5014156;28;20396;-88
2021/10/14 04:07:24;;;;;;;4.80;4.50;;;9.00;69.20;;;;;;5030834;28;20041;-88
2021/10/14 04:09:50;;;;;;;4.85;4.55;;;9.00;69.10;;;;;;5015296;28;20040;-89
2021/10/14 04:12:16;;;;;;;4.30;4.10;;;9.00;69.10;;;;;;5032162;28;20044;-88
2021/10/14 04:14:42;;;;;;;4.50;4.30;;;9.00;69.10;;;;;;5030562;28;20041;-89
2021/10/14 04:17:08;;;;;;;5.07;4.78;;;9.00;69.10;;;;;;4997054;28;20033;-87
2021/10/14 04:19:34;;;;;;;4.82;4.63;;;9.00;69.10;;;;;;5014479;28;20416;-88
2021/10/14 04:22:00;;;;;;;4.90;4.55;;;9.00;70.00;;;;;;5032405;28;20365;-87
2021/10/14 04:24:28;;;;;;;4.07;3.88;;;8.90;69.20;;;;;;5031524;28;20036;-88
2021/10/14 04:26:55;;;;;;;4.18;3.97;;;8.90;69.10;;;;;;5031819;28;20488;-88
2021/10/14 04:29:21;;;;;;;5.75;5.45;;;8.90;69.20;;;;;;5014476;28;20034;-88
2021/10/14 04:31:48;;;;;;;4.45;4.25;;;8.90;69.20;;;;;;5013862;28;20373;-89
2021/10/14 04:34:15;;;;;;;4.80;4.60;;;8.80;69.20;;;;;;5030622;28;20025;-88
2021/10/14 04:36:41;;;;;;;4.45;4.20;;;8.80;69.30;;;;;;5014506;28;20523;-88
2021/10/14 04:39:07;;;;;;;4.50;4.30;;;8.80;69.30;;;;;;5014132;28;20034;-88
2021/10/14 04:41:33;;;;;;;4.78;4.57;;;8.80;69.30;;;;;;5014268;28;20052;-88
2021/10/14 04:43:59;;;;;;;4.70;4.50;;;8.80;69.30;;;;;;5030356;28;20029;-89
2021/10/14 04:46:25;;;;;;;5.40;4.88;;;8.80;69.30;;;;;;5013612;28;20137;-89
2021/10/14 04:48:51;;;;;;;5.20;4.90;;;8.80;69.20;;;;;;5029672;28;20042;-88
2021/10/14 04:51:18;;;;;;;4.70;4.50;;;8.80;69.30;;;;;;5031879;28;20040;-88
2021/10/14 04:53:44;;;;;;;4.30;4.10;;;8.80;69.30;;;;;;5031517;28;20037;-88
2021/10/14 04:56:10;;;;;;;5.22;4.95;;;8.80;69.30;;;;;;5030431;28;20032;-88
2021/10/14 04:58:36;;;;;;;4.85;4.65;;;8.70;69.30;;;;;;5030248;28;20048;-87
2021/10/14 05:01:02;;;;;;;4.97;4.78;;;8.70;69.40;;;;;;5013356;28;20411;-88
2021/10/14 05:03:28;;;;;;;4.45;4.25;;;8.70;69.50;;;;;;5030952;28;20045;-87
2021/10/14 05:05:54;;;;;;;4.75;4.55;;;8.70;69.40;;;;;;5032614;28;20037;-87
2021/10/14 05:08:20;;;;;;;5.22;4.95;;;8.70;69.50;;;;;;5034075;28;20033;-87
2021/10/14 05:10:46;;;;;;;4.45;4.25;;;8.70;70.20;;;;;;5035105;28;20033;-88
2021/10/14 05:13:12;;;;;;;4.30;4.10;;;8.70;69.40;;;;;;5017279;28;20476;-88
2021/10/14 05:15:39;;;;;;;4.32;4.13;;;8.70;69.40;;;;;;5035294;28;20056;-88
2021/10/14 05:18:06;;;;;;;4.78;4.57;;;8.60;69.40;;;;;;5017581;28;20032;-88
2021/10/14 05:20:32;;;;;;;4.55;4.35;;;8.60;69.40;;;;;;5034914;28;20048;-87
2021/10/14 05:22:58;;;;;;;4.57;4.38;;;8.60;69.50;;;;;;5017559;28;20029;-89
2021/10/14 05:25:24;;;;;;;5.43;5.13;;;8.60;69.50;;;;;;5034004;28;20030;-88
2021/10/14 05:27:50;;;;;;;4.97;4.78;;;8.60;69.50;;;;;;5033891;28;20040;-88
2021/10/14 05:30:17;;;;;;;5.32;5.03;;;8.60;69.60;;;;;;5016852;28;20022;-87
2021/10/14 05:32:43;;;;;;;5.13;4.82;;;8.50;69.50;;;;;;5034807;28;20023;-88
2021/10/14 05:35:09;;;;;;;4.43;4.22;;;8.50;69.50;;;;;;5035018;28;20029;-87
2021/10/14 05:37:35;;;;;;;5.07;4.78;;;8.50;69.60;;;;;;5034826;28;20495;-88
2021/10/14 05:40:02;;;;;;;4.43;4.22;;;8.50;69.50;;;;;;5033661;28;20037;-87
2021/10/14 05:42:28;;;;;;;5.13;4.82;;;8.50;69.60;;;;;;5033488;28;20060;-87
2021/10/14 05:44:54;;;;;;;4.55;4.35;;;8.50;69.70;;;;;;5034564;28;20036;-88
2021/10/14 05:47:20;;;;;;;5.40;5.07;;;8.50;69.70;;;;;;5032996;28;20042;-88
2021/10/14 05:49:46;;;;;;;5.93;5.53;;;8.40;69.70;;;;;;5034440;28;20021;-87
2021/10/14 05:52:12;;;;;;;5.15;4.95;;;8.40;69.70;;;;;;5033430;28;20037;-87
2021/10/14 05:54:38;;;;;;;5.43;5.03;;;8.40;69.70;;;;;;5033816;28;20026;-88
2021/10/14 05:57:04;;;;;;;4.95;4.75;;;8.40;69.70;;;;;;5032814;28;20037;-88
2021/10/14 05:59:30;;;;;;;5.43;5.13;;;8.40;69.70;;;;;;5033329;28;20038;-87
2021/10/14 06:01:57;;;;;;;5.65;5.35;;;8.40;69.70;;;;;;5032523;28;20049;-87
2021/10/14 06:04:23;;;;;;;5.20;5.00;;;8.40;69.70;;;;;;5033158;28;20033;-87
2021/10/14 06:06:49;;;;;;;5.43;5.13;;;8.40;69.70;;;;;;5033392;28;20036;-88
2021/10/14 06:09:15;;;;;;;5.82;5.43;;;8.30;69.70;;;;;;5034092;28;20029;-87
2021/10/14 06:11:41;;;;;;;5.35;5.15;;;8.30;69.60;;;;;;5033731;28;20373;-87
2021/10/14 06:14:07;;;;;;;5.38;5.07;;;8.30;69.60;;;;;;5032829;28;20030;-88
2021/10/14 06:16:33;;;;;;;5.95;5.55;;;8.30;69.70;;;;;;5032177;28;20029;-87
2021/10/14 06:18:59;;;;;;;5.32;5.13;;;8.30;69.70;;;;;;5016470;28;20388;-87
2021/10/14 06:21:25;;;;;;;5.57;5.28;;;8.30;69.70;;;;;;5033042;28;20036;-87
2021/10/14 06:23:51;;;;;;;5.88;5.57;;;8.30;69.70;;;;;;5032293;28;20045;-87
2021/10/14 06:26:18;;;;;;;5.30;5.00;;;8.30;69.80;;;;;;5033533;28;20026;-88
2021/10/14 06:28:44;;;;;;;5.00;4.70;;;8.30;69.80;;;;;;5032423;28;20037;-87
2021/10/14 06:31:10;;;;;;;4.85;4.65;;;8.30;69.80;;;;;;5033495;28;20034;-88
2021/10/14 06:33:36;;;;;;;6.18;5.65;;;8.30;69.80;;;;;;5016021;28;20048;-87
2021/10/14 06:36:02;;;;;;;4.95;4.65;;;8.30;69.80;;;;;;5034098;28;20384;-87
2021/10/14 06:38:28;;;;;;;5.22;4.93;;;8.30;69.80;;;;;;5032018;28;20044;-87
2021/10/14 06:40:54;;;;;;;4.90;4.63;;;8.30;69.80;;;;;;5015415;28;20045;-87
2021/10/14 06:43:20;;;;;;;4.65;4.45;;;8.30;69.80;;;;;;5032575;28;20025;-86
2021/10/14 06:45:47;;;;;;;7.40;4.30;;;8.30;69.80;;;;;;5032296;28;20052;-88
2021/10/14 06:48:13;;;;;;;4.85;4.65;;;8.30;69.70;;;;;;5033400;28;20042;-87
2021/10/14 06:50:39;;;;;;;5.03;4.82;;;8.30;69.70;;;;;;5032175;28;20052;-88
2021/10/14 06:53:08;;;;;;;5.70;5.30;;;8.30;69.80;;;;;;5032931;28;20039;-87
2021/10/14 06:55:35;;;;;;;5.32;4.63;;;8.30;69.80;;;;;;5032290;28;20087;-87
2021/10/14 06:58:02;;;;;;;5.40;5.03;;;8.30;69.70;;;;;;5032150;28;20040;-87
2021/10/14 07:00:28;;;;;;;4.95;4.75;;;8.30;69.60;;;;;;5032976;28;20056;-88
2021/10/14 07:02:54;;;;;;;5.32;4.88;;;8.30;69.70;;;;;;5031905;28;20100;-88
2021/10/14 07:05:20;;;;;;;4.80;4.60;;;8.30;69.80;;;;;;5015740;28;20022;-87
2021/10/14 07:07:46;;;;;;;4.63;4.43;;;8.30;70.50;;;;;;5032555;28;20045;-87
2021/10/14 07:10:12;;;;;;;4.72;4.53;;;8.40;69.80;;;;;;4999492;28;20052;-89
2021/10/14 07:12:40;;;;;;;4.90;4.60;;;8.40;69.70;;;;;;5032323;28;20033;-88
2021/10/14 07:15:07;;;;;;;4.95;4.68;;;8.50;69.70;;;;;;5031487;28;20033;-88
2021/10/14 07:17:33;;;;;;;4.82;4.60;;;8.50;69.60;;;;;;5015472;28;20044;-89
2021/10/14 07:20:00;;;;;;;4.88;4.68;;;8.50;69.50;;;;;;5032848;28;20034;-88
2021/10/14 07:22:26;;;;;;;5.10;4.80;;;8.60;69.50;;;;;;5015097;28;20048;-88
2021/10/14 07:24:52;;;;;;;5.28;4.70;;;8.60;69.60;;;;;;5015488;28;20025;-87
2021/10/14 07:27:18;;;;;;;4.93;4.63;;;8.90;69.40;;;;;;5031743;28;20411;-88
2021/10/14 07:29:44;;;;;;;4.35;4.10;;;9.40;68.20;;;;;;5030940;28;20034;-88
2021/10/14 07:32:10;;;;;;;4.50;4.30;;;10.00;66.80;;;;;;5014742;28;20044;-89
2021/10/14 07:34:37;;;;;;;6.00;5.60;;;10.40;65.60;;;;;;5032865;28;20029;-88
2021/10/14 07:37:04;;;;;;;4.68;4.47;;;10.80;64.90;;;;;;5032252;28;20040;-88
2021/10/14 07:39:31;;;;;;;5.10;4.90;;;11.00;64.40;;;;;;5031815;28;20419;-89
2021/10/14 07:41:57;;;;;;;5.30;5.00;;;11.20;64.20;;;;;;5032646;28;20028;-90
2021/10/14 07:44:23;;;;;;;5.20;4.93;;;11.40;64.00;;;;;;5015065;28;20029;-89
2021/10/14 07:46:49;;;;;;;5.15;4.90;;;11.60;63.70;;;;;;5030899;28;20026;-90
2021/10/14 07:49:16;;;;;;;5.03;4.82;;;11.70;63.50;;;;;;5031567;28;20396;-90
2021/10/14 07:51:42;;;;;;;6.45;5.95;;;11.90;63.40;;;;;;5032664;28;20026;-89
2021/10/14 07:54:08;;;;;;;6.50;6.20;;;12.10;63.30;;;;;;5031373;28;20388;-89
2021/10/14 07:56:34;;;;;;;6.15;5.85;;;12.20;63.00;;;;;;5032373;28;20029;-91
2021/10/14 07:59:00;;;;;;;6.70;6.40;;;12.40;62.90;;;;;;5031233;28;20392;-90
2021/10/14 08:01:26;;;;;;;4.95;4.75;;;12.40;62.90;;;;;;5014035;28;20056;-89
2021/10/14 08:03:52;;;;;;;5.30;5.00;;;12.50;62.80;;;;;;5015314;28;20048;-90
2021/10/14 08:06:18;;;;;;;5.00;4.80;;;12.60;62.80;;;;;;5031216;28;20487;-90
2021/10/14 08:08:44;;;;;;;5.35;5.05;;;12.60;62.90;;;;;;5031175;28;20041;-90
2021/10/14 08:11:11;;;;;;;5.47;5.18;;;12.70;62.90;;;;;;5032670;28;20025;-89
2021/10/14 08:13:37;;;;;;;5.68;5.28;;;12.90;62.70;;;;;;5013512;28;20049;-90
2021/10/14 08:16:04;;;;;;;5.80;5.50;;;13.00;62.50;;;;;;5030581;28;20034;-90
2021/10/14 08:18:30;;;;;;;5.80;5.50;;;13.00;62.40;;;;;;5015450;28;20408;-89
2021/10/14 08:20:57;;;;;;;5.35;5.15;;;13.00;62.50;;;;;;5014243;28;20033;-90
2021/10/14 08:23:32;;;;;;;5.75;5.45;;;12.80;62.80;;;;;;5014985;28;20037;-89
2021/10/14 08:25:58;;;;;;;5.05;4.85;;;12.60;63.50;;;;;;5014652;28;20033;-90
2021/10/14 08:28:26;;;;;;;5.40;5.10;;;12.40;64.00;;;;;;5014098;28;20049;-90
2021/10/14 08:30:52;;;;;;;5.25;5.05;;;12.40;65.10;;;;;;5031897;28;20030;-91
2021/10/14 08:33:18;;;;;;;5.70;5.40;;;12.30;64.90;;;;;;5031149;28;20026;-89
2021/10/14 08:35:45;;;;;;;5.97;5.68;;;12.30;65.00;;;;;;5030755;28;20034;-89
2021/10/14 08:38:11;;;;;;;5.30;5.10;;;12.30;65.00;;;;;;4997940;28;20045;-89
2021/10/14 08:40:38;;;;;;;5.63;5.32;;;12.30;65.20;;;;;;5015646;28;20044;-91
2021/10/14 08:43:06;;;;;;;5.82;5.53;;;12.40;65.20;;;;;;5004684;28;20064;-90
2021/10/14 08:45:36;;;;;;;5.45;5.15;;;12.60;65.10;;;;;;5034213;28;20037;-90
2021/10/14 08:48:02;;;;;;;5.85;5.55;;;12.70;64.70;;;;;;5018518;28;20038;-90
2021/10/14 08:50:29;;;;;;;4.97;4.78;;;12.90;64.50;;;;;;5018524;28;20392;-90
2021/10/14 08:52:55;;;;;;;5.20;5.00;;;13.20;64.20;;;;;;5018020;28;20038;-89
2021/10/14 08:55:21;;;;;;;5.10;4.90;;;13.40;63.60;;;;;;5036155;28;20384;-86
2021/10/14 08:57:47;;;;;;;5.30;5.10;;;13.50;63.30;;;;;;5031126;28;20364;-90
2021/10/14 09:00:13;;;;;;;6.80;5.82;;;13.50;63.30;;;;;;5039085;28;20038;-89
2021/10/14 09:02:41;;;;;;;5.60;5.30;;;13.50;63.40;;;;;;5034232;28;20484;-88
2021/10/14 09:05:10;;;;;;;5.30;5.07;;;13.50;63.60;;;;;;5034283;28;20029;-90
2021/10/14 09:07:36;;;;;;;5.63;5.40;;;13.40;63.80;;;;;;5018655;28;20045;-88
2021/10/14 09:10:12;;;;;;;5.40;5.15;;;13.50;64.00;;;;;;5034600;28;20033;-89
2021/10/14 09:12:42;;;;;;;5.30;5.10;;;13.50;64.00;;;;;;5017890;28;20030;-89
2021/10/14 09:15:16;;;;;;;5.50;5.30;;;13.60;64.00;;;;;;5033873;28;20034;-89
2021/10/14 09:17:43;;;;;;;5.30;5.10;;;13.70;63.80;;;;;;5018424;28;20041;-90
2021/10/14 09:20:29;;;;;;;6.10;5.80;;;13.70;63.80;;;;;;5033176;28;20037;-89
2021/10/14 09:23:27;;;;;;;5.90;5.60;;;13.60;63.90;;;;;;5034299;28;20396;-88
2021/10/14 09:25:53;;;;;;;5.45;5.18;;;13.60;64.10;;;;;;5035350;28;20025;-89
2021/10/14 09:28:27;;;;;;;5.35;5.13;;;13.60;64.10;;;;;;5019206;28;20045;-88
2021/10/14 09:30:56;;;;;;;5.47;5.28;;;13.70;64.10;;;;;;5030486;28;20040;-88
2021/10/14 09:33:41;;;;;;;7.13;6.82;;;13.80;63.90;;;;;;5033881;28;20036;-88
2021/10/14 09:36:14;;;;;;;5.80;5.50;;;13.90;63.70;;;;;;5033551;28;20037;-88
2021/10/14 09:38:40;;;;;;;5.70;5.40;;;14.00;63.40;;;;;;5034799;28;20040;-87
2021/10/14 09:41:08;;;;;;;6.55;6.25;;;14.10;63.20;;;;;;5033633;28;20392;-88
2021/10/14 09:43:34;;;;;;;6.18;5.88;;;14.10;63.20;;;;;;5033470;28;20523;-89
2021/10/14 09:46:01;;;;;;;5.97;5.68;;;14.10;63.00;;;;;;5016689;28;20391;-87
2021/10/14 09:48:27;;;;;;;6.35;5.75;;;14.20;63.00;;;;;;5033345;28;20033;-88
2021/10/14 09:50:53;;;;;;;6.07;5.78;;;14.20;63.00;;;;;;5000658;28;20033;-88
2021/10/14 09:53:24;;;;;;;6.30;6.00;;;14.30;62.80;;;;;;5032341;28;20037;-87
2021/10/14 09:55:51;;;;;;;6.20;5.90;;;14.40;62.80;;;;;;5033471;28;20476;-87
2021/10/14 09:58:18;;;;;;;6.60;6.30;;;14.40;62.60;;;;;;5033319;28;20033;-88
2021/10/14 10:00:44;;;;;;;6.00;5.70;;;14.50;62.40;;;;;;5032947;28;20044;-88
2021/10/14 10:03:15;;;;;;;5.97;5.68;;;14.50;62.30;;;;;;5016539;28;20040;-87
2021/10/14 10:05:45;;;;;;;6.68;6.32;;;14.60;62.20;;;;;;5017471;28;20042;-88
2021/10/14 10:08:13;;;;;;;6.45;6.15;;;14.60;62.10;;;;;;5016939;28;20037;-87
2021/10/14 10:10:43;;;;;;;7.00;6.70;;;14.80;62.00;;;;;;5016857;28;20460;-88
2021/10/14 10:13:11;;;;;;;7.22;6.82;;;14.90;61.70;;;;;;5032909;28;20022;-87
2021/10/14 10:15:44;;;;;;;7.38;6.97;;;14.90;61.30;;;;;;5032359;28;20041;-88
2021/10/14 10:18:29;;;;;;;7.32;6.70;;;15.00;61.40;;;;;;5033555;28;20026;-87
2021/10/14 10:20:58;;;;;;;6.75;6.40;;;15.00;61.30;;;;;;5065823;28;20068;-88
2021/10/14 10:23:42;;;;;;;9.85;9.40;;;15.10;61.20;;;;;;5027786;28;20018;-87
2021/10/14 10:26:36;;;;;;;6.20;5.90;;;15.20;61.00;;;;;;5033796;28;20037;-89
2021/10/14 10:29:02;;;;;;;8.13;7.72;;;15.20;60.80;;;;;;5033693;28;20230;-88
2021/10/14 10:31:48;;;;;;;6.25;5.95;;;15.20;60.60;;;;;;5033091;28;20030;-87
2021/10/14 10:37:29;;;;;;;8.55;8.15;;;15.30;60.50;;;;;;5035530;28;20041;-86
2021/10/14 10:39:56;;;;;;;6.30;6.00;;;15.40;60.40;;;;;;5029587;28;20037;-87
2021/10/14 10:42:36;;;;;;;6.45;6.15;;;15.40;60.00;;;;;;5032532;28;20029;-86
2021/10/14 10:45:29;;;;;;;6.18;5.88;;;15.50;60.00;;;;;;5030956;28;20377;-82
2021/10/14 10:47:57;;;;;;;6.68;6.28;;;15.50;59.70;;;;;;5030382;28;20042;-88
2021/10/14 10:50:29;;;;;;;6.13;5.82;;;15.60;59.40;;;;;;5032045;28;20048;-87
2021/10/14 10:53:03;;;;;;;7.65;7.30;;;15.60;59.40;;;;;;5033215;28;20032;-86
2021/10/14 10:55:33;;;;;;;7.43;7.13;;;15.60;59.30;;;;;;5033256;28;20037;-86
2021/10/14 10:58:01;;;;;;;6.97;6.68;;;15.70;58.70;;;;;;5033436;28;20036;-86
2021/10/14 11:00:27;;;;;;;7.32;6.97;;;15.70;58.40;;;;;;5014890;28;20522;-87
2021/10/14 11:03:09;;;;;;;6.30;6.00;;;15.70;58.40;;;;;;5031136;28;20457;-87
2021/10/14 11:05:54;;;;;;;6.80;6.50;;;15.70;58.40;;;;;;5032010;28;20037;-86
2021/10/14 11:08:24;;;;;;;14.70;6.15;;;15.80;58.10;;;;;;5032878;28;20522;-86
2021/10/14 11:11:10;;;;;;;7.97;7.38;;;15.80;58.00;;;;;;5031995;28;20387;-86
2021/10/14 11:13:38;;;;;;;6.75;6.45;;;15.80;58.40;;;;;;5019501;28;20048;-87
2021/10/14 11:16:07;;;;;;;7.28;6.80;;;15.80;57.50;;;;;;5014767;28;20033;-86
2021/10/14 11:18:34;;;;;;;6.72;6.43;;;15.80;57.50;;;;;;5030089;28;20029;-86
2021/10/14 11:21:05;;;;;;;11.05;10.55;;;15.90;57.30;;;;;;5014538;28;20392;-86
2021/10/14 11:23:34;;;;;;;;;;;15.90;57.40;;;;;;5031930;28;20415;-85
2021/10/14 11:26:08;;;;;;;7.13;6.72;;;15.90;57.20;;;;;;5031739;28;19912;-86
2021/10/14 11:29:00;;;;;;;6.85;6.55;;;15.90;57.10;;;;;;5031316;28;20400;-86
2021/10/14 11:31:35;;;;;;;6.88;6.57;;;16.00;57.30;;;;;;5017206;28;20038;-86
2021/10/14 11:34:11;;;;;;;6.65;6.25;;;16.00;57.20;;;;;;5032080;28;20048;-86
2021/10/14 11:37:09;;;;;;;6.20;5.90;;;16.10;57.10;;;;;;5069695;28;20902;-86
2021/10/14 11:39:47;;;;;;;7.47;7.18;;;16.20;57.10;;;;;;5050351;28;20360;-86
2021/10/14 11:42:15;;;;;;;6.78;6.20;;;16.20;56.90;;;;;;5037643;28;20033;-86
2021/10/14 11:44:47;;;;;;;6.28;5.97;;;16.20;56.90;;;;;;5035043;28;20038;-86
2021/10/14 11:47:14;;;;;;;6.30;6.00;;;16.30;56.90;;;;;;5013299;28;20022;-86
2021/10/14 11:49:40;;;;;;;6.78;6.32;;;16.30;56.90;;;;;;5011021;28;20022;-86
2021/10/14 11:52:07;;;;;;;8.95;8.48;;;16.40;56.70;;;;;;5008672;28;20472;-86
2021/10/14 11:54:35;;;;;;;7.40;6.78;;;16.40;56.40;;;;;;5014333;28;20038;-86
2021/10/14 11:57:06;;;;;;;7.82;7.43;;;16.50;56.20;;;;;;5014543;28;20045;-85
2021/10/14 11:59:32;;;;;;;7.07;6.77;;;16.50;56.00;;;;;;5016213;28;20041;-86
2021/10/14 12:02:11;;;;;;;20.02;19.08;;;16.50;55.90;;;;;;5013360;28;20030;-85
2021/10/14 12:04:47;;;;;;;7.20;6.90;;;16.50;55.80;;;;;;5020951;28;20365;-86
2021/10/14 12:07:23;;;;;;;6.63;6.32;;;16.50;55.50;;;;;;5007498;28;20034;-85
2021/10/14 12:09:50;;;;;;;6.57;6.28;;;16.50;55.30;;;;;;5024446;28;20034;-86
2021/10/14 12:12:17;;;;;;;6.43;6.13;;;16.50;55.30;;;;;;5010903;28;20069;-86
2021/10/14 12:14:43;;;;;;;7.78;7.18;;;16.60;55.20;;;;;;4989597;28;20042;-85
2021/10/14 12:17:14;;;;;;;7.07;6.75;;;16.60;55.00;;;;;;5026559;28;20482;-86
2021/10/14 12:19:43;;;;;;;6.82;6.53;;;16.60;54.80;;;;;;5008878;28;20416;-86
2021/10/14 12:22:11;;;;;;;7.57;7.18;;;16.60;54.60;;;;;;5007513;28;20046;-85
2021/10/14 12:25:01;;;;;;;7.10;6.80;;;16.70;54.50;;;;;;5028744;28;20026;-86
2021/10/14 12:27:46;;;;;;;7.20;6.90;;;16.70;54.50;;;;;;5026208;28;20046;-86
2021/10/14 12:30:28;;;;;;;6.80;6.50;;;16.80;54.40;;;;;;4994099;28;20042;-85
2021/10/14 12:33:14;;;;;;;7.40;7.10;;;16.80;54.20;;;;;;5013096;28;20037;-85
2021/10/14 12:36:01;;;;;;;7.93;7.53;;;16.90;54.10;;;;;;5015719;28;20050;-85
2021/10/14 12:38:40;;;;;;;9.55;9.15;;;16.90;54.00;;;;;;5018302;28;20022;-85
2021/10/14 12:41:12;;;;;;;9.93;9.43;;;16.90;53.50;;;;;;5011329;28;20021;-86
2021/10/14 12:43:49;;;;;;;7.00;6.70;;;16.90;53.50;;;;;;5007017;28;20049;-86
2021/10/14 12:51:25;;;;;;;12.40;11.80;;;17.00;53.20;;;;;;5031722;28;20026;-85
2021/10/14 12:53:56;;;;;;;7.03;6.72;;;17.10;53.10;;;;;;5013668;28;20042;-85
2021/10/14 12:56:39;;;;;;;7.32;7.03;;;17.10;53.00;;;;;;4997923;28;20069;-86
2021/10/14 12:59:06;;;;;;;7.88;7.47;;;17.10;52.80;;;;;;4996593;28;20028;-86
2021/10/14 13:01:35;;;;;;;7.60;7.30;;;17.10;52.70;;;;;;4992154;28;20035;-85
2021/10/14 13:04:01;;;;;;;8.43;8.02;;;17.20;52.80;;;;;;4995695;28;20027;-86